Pride Of Kent — MQCJ2 — position and weather

sailwx.info

Track history (hours):
 
Tides and Currents Weather Stations Pressure Air Temp Water Temp Dewpoint Dewpoint Depression Visibility Wind Speed Wind Dir Waves Ship Positions

Pride Of Kent

Operator: P & O Ferries

Last reported at 2018-Nov-11 02:32 UTC. Time now 2018-Nov-13 06:53 UTC.
Position N 50°58' E 001°51'.

Length 180 m; draft 6 m.

Type: Passenger vessel. MMSI: 232009000.

Date/timePositionNaut miles runAvg speedWind from/ knotsBaromVisibWave heightAir tempDewpointWater temp
2018-Nov-11 02:32N 50°58' E 001°51'3 6.1
2018-Nov-11 02:02N 50°58' E 001°46'816.1
2018-Nov-11 01:33N 51°01' E 001°34'918.0
2018-Nov-11 01:02N 51°06' E 001°23'2 3.4
2018-Nov-11 00:25N 51°07' E 001°20'0 0.5
2018-Nov-11 00:02N 51°07' E 001°20'714.1
2018-Nov-10 23:32N 51°04' E 001°30'917.2
2018-Nov-10 23:02N 50°60' E 001°42'610.4
2018-Nov-10 22:28N 50°58' E 001°51'0 0.0
2018-Nov-10 22:02N 50°58' E 001°51'0 0.0
2018-Nov-10 21:31N 50°58' E 001°51'612.6
2018-Nov-10 21:02N 50°58' E 001°41'917.4
2018-Nov-10 20:33N 51°03' E 001°30'814.7
2018-Nov-10 20:02N 51°07' E 001°20'0 0.0
2018-Nov-10 19:32N 51°07' E 001°20'1 1.7
2018-Nov-10 19:02N 51°07' E 001°21'918.9
2018-Nov-10 18:32N 51°02' E 001°34'1019.4
2018-Nov-10 18:02N 50°58' E 001°48'2 3.7
2018-Nov-10 17:32N 50°58' E 001°51'0 0.0
2018-Nov-10 16:59N 50°58' E 001°51'410.0
2018-Nov-10 16:32N 50°58' E 001°44'918.9
2018-Nov-10 16:02N 51°03' E 001°31'815.8
2018-Nov-10 15:31N 51°07' E 001°20'0 0.0
2018-Nov-10 15:02N 51°07' E 001°20'2 3.3
2018-Nov-10 14:32N 51°07' E 001°23'918.0
2018-Nov-10 14:03N 51°02' E 001°35'917.1
2018-Nov-10 13:32N 50°58' E 001°47'3 5.5
2018-Nov-10 13:02N 50°58' E 001°51'0 0.0
2018-Nov-10 12:32N 50°58' E 001°51'714.1
2018-Nov-10 12:02N 50°60' E 001°40'918.9
2018-Nov-10 11:32N 51°04' E 001°27'5 7.4
2018-Nov-10 10:48N 51°07' E 001°20'0 0.0
2018-Nov-10 10:27N 51°07' E 001°20'1 1.7
2018-Nov-10 10:02N 51°07' E 001°21'918.7
2018-Nov-10 09:32N 51°03' E 001°34'918.7
2018-Nov-10 09:02N 50°58' E 001°47'2 4.8
2018-Nov-10 08:32N 50°58' E 001°51'0 0.0
2018-Nov-10 08:02N 50°58' E 001°51'612.8
2018-Nov-10 07:33N 50°58' E 001°41'917.9
2018-Nov-10 07:03N 51°03' E 001°29'713.9
2018-Nov-10 06:32N 51°07' E 001°20'0 0.0
2018-Nov-10 06:02N 51°07' E 001°20'1 1.5
2018-Nov-10 05:32N 51°07' E 001°21'917.6
2018-Nov-10 05:02N 51°04' E 001°34'918.7
2018-Nov-10 04:32N 50°58' E 001°46'4 7.4
2018-Nov-10 04:02N 50°58' E 001°52'0 0.0
2018-Nov-10 03:33N 50°58' E 001°52'4 7.8
2018-Nov-10 03:02N 50°58' E 001°46'816.2
2018-Nov-10 02:33N 51°01' E 001°34'612.9
2018-Nov-10 02:02N 51°05' E 001°26'4 4.1
2018-Nov-10 01:01N 51°07' E 001°20'1 1.5
2018-Nov-10 00:32N 51°07' E 001°21'2 4.7
2018-Nov-10 00:03N 51°06' E 001°25'4 8.2
2018-Nov-09 23:32N 51°04' E 001°30'918.4
2018-Nov-09 23:02N 50°59' E 001°42'611.7
2018-Nov-09 22:32N 50°58' E 001°52'0 0.0
2018-Nov-09 22:02N 50°58' E 001°52'0 0.5
2018-Nov-09 21:32N 50°58' E 001°51'815.3
2018-Nov-09 21:02N 50°59' E 001°39'917.8
2018-Nov-09 20:32N 51°03' E 001°27'6 8.2
2018-Nov-09 19:49N 51°07' E 001°20'0 0.2
2018-Nov-09 19:08N 51°07' E 001°20'0 4.3
2018-Nov-09 19:03N 51°07' E 001°21'918.3
2018-Nov-09 18:32N 51°04' E 001°34'1019.3
2018-Nov-09 18:03N 50°58' E 001°46'3 5.5
2018-Nov-09 17:31N 50°58' E 001°51'0 0.0
2018-Nov-09 17:02N 50°58' E 001°51'713.3
2018-Nov-09 16:32N 50°58' E 001°40'816.4
2018-Nov-09 16:03N 51°03' E 001°29'714.3
2018-Nov-09 15:31N 51°07' E 001°20'0 0.0
2018-Nov-09 15:02N 51°07' E 001°20'2 3.4
2018-Nov-09 14:32N 51°07' E 001°23'918.0
2018-Nov-09 14:02N 51°03' E 001°35'917.4
2018-Nov-09 13:32N 50°58' E 001°47'2 2.9
2018-Nov-09 12:41N 50°58' E 001°51'0 0.0
2018-Nov-09 12:24N 50°58' E 001°51'410.1
2018-Nov-09 12:03N 50°58' E 001°45'1019.6
2018-Nov-09 11:32N 51°02' E 001°31'917.3
2018-Nov-09 11:02N 51°07' E 001°20'0 0.6
2018-Nov-09 10:32N 51°07' E 001°20'0 0.3
2018-Nov-09 10:02N 51°07' E 001°20'816.8
2018-Nov-09 09:33N 51°04' E 001°32'918.9
2018-Nov-09 09:03N 50°58' E 001°45'4 8.1
2018-Nov-09 08:32N 50°58' E 001°51'0 0.0
2018-Nov-09 08:02N 50°58' E 001°51'2 4.6
2018-Nov-09 07:32N 50°58' E 001°47'816.3
2018-Nov-09 07:02N 51°01' E 001°35'917.7
2018-Nov-09 06:32N 51°06' E 001°24'3 5.3
2018-Nov-09 06:02N 51°07' E 001°20'0 0.0
2018-Nov-09 05:32N 51°07' E 001°20'1 1.3
2018-Nov-09 05:02N 51°07' E 001°21'816.6
2018-Nov-09 04:33N 51°03' E 001°33'917.0
2018-Nov-09 04:02N 50°59' E 001°44'4 8.7
2018-Nov-09 03:32N 50°58' E 001°51'0 0.0
2018-Nov-09 03:01N 50°58' E 001°51'0 0.0
2018-Nov-09 02:29N 50°58' E 001°51'2 4.8
2018-Nov-09 02:02N 50°58' E 001°48'918.0
2018-Nov-09 01:32N 51°00' E 001°34'816.1
2018-Nov-09 01:03N 51°06' E 001°24'3 6.3
2018-Nov-09 00:32N 51°07' E 001°20'0 0.2
2018-Nov-09 00:01N 51°07' E 001°20'714.3
2018-Nov-08 23:32N 51°05' E 001°30'917.8
2018-Nov-08 23:02N 50°59' E 001°41'612.6
2018-Nov-08 22:32N 50°58' E 001°51'0 0.1
2018-Nov-08 22:00N 50°58' E 001°51'1 1.7
2018-Nov-08 21:33N 50°58' E 001°50'917.9
2018-Nov-08 21:02N 50°60' E 001°36'918.6
2018-Nov-08 20:33N 51°05' E 001°24'3 6.3
2018-Nov-08 20:02N 51°07' E 001°20'0 0.0
2018-Nov-08 19:32N 51°07' E 001°20'4 8.4
2018-Nov-08 19:02N 51°06' E 001°26'1019.8
2018-Nov-08 18:32N 51°00' E 001°39'815.1
2018-Nov-08 18:02N 50°58' E 001°51'0 0.2
2018-Nov-08 17:29N 50°58' E 001°51'0 0.4
2018-Nov-08 17:00N 50°58' E 001°51'715.3
2018-Nov-08 16:32N 50°59' E 001°40'918.8
2018-Nov-08 16:02N 51°04' E 001°27'611.2
2018-Nov-08 15:33N 51°07' E 001°20'0 0.0
2018-Nov-08 15:02N 51°07' E 001°20'4 7.3
2018-Nov-08 14:32N 51°06' E 001°26'918.9
2018-Nov-08 14:02N 51°01' E 001°38'816.6
2018-Nov-08 13:33N 50°58' E 001°51'0 0.6
2018-Nov-08 13:03N 50°58' E 001°51'0 0.0
2018-Nov-08 12:27N 50°58' E 001°51'613.7
2018-Nov-08 12:02N 50°58' E 001°42'1019.5
2018-Nov-08 11:32N 51°03' E 001°29'714.0
2018-Nov-08 11:02N 51°07' E 001°20'0 0.0
2018-Nov-08 10:32N 51°07' E 001°20'0 0.9
2018-Nov-08 10:02N 51°07' E 001°21'917.7
2018-Nov-08 09:32N 51°03' E 001°33'918.6
2018-Nov-08 09:02N 50°58' E 001°46'3 6.7
2018-Nov-08 08:32N 50°58' E 001°51'0 0.0
2018-Nov-08 08:00N 50°58' E 001°51'5 9.7
2018-Nov-08 07:32N 50°58' E 001°44'917.4
2018-Nov-08 07:02N 51°02' E 001°32'917.7
2018-Nov-08 06:32N 51°07' E 001°20'0 0.3
2018-Nov-08 05:59N 51°07' E 001°20'0 0.0
2018-Nov-08 05:23N 51°07' E 001°20'3 8.2
2018-Nov-08 05:02N 51°06' E 001°24'917.2
2018-Nov-08 04:32N 51°01' E 001°36'816.5
2018-Nov-08 04:02N 50°58' E 001°48'3 5.2
2018-Nov-08 03:32N 50°58' E 001°52'0 0.0
2018-Nov-08 03:03N 50°58' E 001°52'0 0.0
2018-Nov-08 02:32N 50°58' E 001°52'612.5
2018-Nov-08 02:02N 50°58' E 001°42'1019.7
2018-Nov-08 01:32N 51°04' E 001°29'711.5
2018-Nov-08 00:58N 51°07' E 001°20'0 0.0
2018-Nov-08 00:41N 51°07' E 001°20'0 0.0
2018-Nov-08 00:21N 51°07' E 001°20'2 6.1
2018-Nov-08 00:02N 51°07' E 001°23'816.8
2018-Nov-07 23:32N 51°03' E 001°35'816.6
2018-Nov-07 23:02N 50°58' E 001°45'4 7.2
2018-Nov-07 22:32N 50°58' E 001°51'0 0.0
2018-Nov-07 22:02N 50°58' E 001°51'510.7
2018-Nov-07 21:32N 50°58' E 001°43'1019.2
2018-Nov-07 21:02N 51°04' E 001°30'714.6
2018-Nov-07 20:32N 51°07' E 001°20'0 0.0
2018-Nov-07 20:02N 51°07' E 001°20'0 0.1
2018-Nov-07 19:32N 51°07' E 001°20'713.6
2018-Nov-07 19:03N 51°05' E 001°30'917.2
2018-Nov-07 18:33N 50°59' E 001°40'714.0
2018-Nov-07 18:03N 50°58' E 001°51'0 0.0
2018-Nov-07 17:33N 50°58' E 001°51'0 0.9
2018-Nov-07 17:02N 50°58' E 001°50'917.0
2018-Nov-07 16:32N 50°59' E 001°37'918.5
2018-Nov-07 16:02N 51°05' E 001°25'4 4.0
2018-Nov-07 15:00N 51°07' E 001°20'612.5
2018-Nov-07 14:33N 51°05' E 001°29'918.7
2018-Nov-07 14:03N 51°00' E 001°41'712.5
2018-Nov-07 13:31N 50°58' E 001°51'0 0.0
2018-Nov-07 13:02N 50°58' E 001°51'2 3.9
2018-Nov-07 12:32N 50°58' E 001°48'918.6
2018-Nov-07 12:02N 51°01' E 001°34'917.7
2018-Nov-07 11:32N 51°06' E 001°23'2 3.9
2018-Nov-07 10:59N 51°07' E 001°20'0 0.2
2018-Nov-07 10:28N 51°07' E 001°20'3 8.3
2018-Nov-07 10:02N 51°06' E 001°25'918.4
2018-Nov-07 09:32N 51°01' E 001°38'816.4
2018-Nov-07 09:03N 50°58' E 001°50'1 1.5
2018-Nov-07 08:32N 50°58' E 001°51'0 0.4
2018-Nov-07 08:02N 50°58' E 001°51'816.4
2018-Nov-07 07:33N 50°58' E 001°38'917.5
2018-Nov-07 07:02N 51°04' E 001°28'6 6.8
2018-Nov-07 06:11N 51°07' E 001°20'0 0.0
2018-Nov-07 05:51N 51°07' E 001°20'0 0.1
2018-Nov-07 05:26N 51°07' E 001°20'3 8.5
2018-Nov-07 05:03N 51°06' E 001°25'815.8
2018-Nov-07 04:33N 51°02' E 001°36'2 0.4
2018-Nov-06 23:30N 51°04' E 001°34'817.7
2018-Nov-06 23:03N 50°59' E 001°44'117.2
2018-Nov-06 23:00N 50°58' E 001°45'4 3.9
2018-Nov-06 22:00N 50°58' E 001°51'0 0.0
2018-Nov-06 21:30N 50°58' E 001°51'613.6
2018-Nov-06 21:03N 50°58' E 001°42'120.1
2018-Nov-06 21:00N 50°59' E 001°40'918.7
2018-Nov-06 20:31N 51°03' E 001°27'613.5
2018-Nov-06 20:03N 51°07' E 001°20'0 0.0
2018-Nov-06 20:00N 51°07' E 001°20'0 0.0
2018-Nov-06 19:31N 51°07' E 001°20'3 5.8
2018-Nov-06 19:03N 51°07' E 001°24'119.6
2018-Nov-06 19:00N 51°06' E 001°26'1019.6
2018-Nov-06 18:30N 51°01' E 001°39'817.5
2018-Nov-06 18:03N 50°58' E 001°50'0 5.6
2018-Nov-06 18:01N 50°58' E 001°51'0 0.5
2018-Nov-06 17:30N 50°58' E 001°51'0 0.0
2018-Nov-06 17:04N 50°58' E 001°51'0 0.1
2018-Nov-06 17:00N 50°58' E 001°51'612.5
2018-Nov-06 16:30N 50°59' E 001°41'818.1
2018-Nov-06 16:03N 51°03' E 001°30'118.4
2018-Nov-06 16:00N 51°04' E 001°29'713.6
2018-Nov-06 15:30N 51°07' E 001°20'0 0.0
2018-Nov-06 15:03N 51°07' E 001°20'0 0.0
2018-Nov-06 15:01N 51°07' E 001°20'2 4.8
2018-Nov-06 14:30N 51°07' E 001°24'817.9
2018-Nov-06 14:03N 51°03' E 001°35'119.7
2018-Nov-06 14:00N 51°02' E 001°36'917.8
2018-Nov-06 13:30N 50°58' E 001°49'2 2.5
2018-Nov-06 12:53N 50°58' E 001°51'0 0.0
2018-Nov-06 12:30N 50°58' E 001°51'510.4
2018-Nov-06 12:03N 50°58' E 001°43'120.6
2018-Nov-06 11:59N 50°59' E 001°42'919.3
2018-Nov-06 11:30N 51°03' E 001°29'714.8
2018-Nov-06 11:03N 51°07' E 001°20'0 0.0
2018-Nov-06 11:00N 51°07' E 001°20'0 0.0
2018-Nov-06 10:30N 51°07' E 001°20'2 4.6
2018-Nov-06 10:03N 51°07' E 001°23'117.2
2018-Nov-06 10:00N 51°07' E 001°25'918.7
2018-Nov-06 09:31N 51°01' E 001°37'816.9
2018-Nov-06 09:03N 50°58' E 001°48'115.8
2018-Nov-06 09:00N 50°58' E 001°49'1 2.6
2018-Nov-06 08:30N 50°58' E 001°51'0 0.0
2018-Nov-06 08:03N 50°58' E 001°51'0 0.0
2018-Nov-06 08:00N 50°58' E 001°51'612.2
2018-Nov-06 07:30N 50°59' E 001°41'818.0
2018-Nov-06 07:03N 51°02' E 001°30'117.3
2018-Nov-06 07:00N 51°03' E 001°29'714.1
2018-Nov-06 06:30N 51°07' E 001°20'0 0.0
2018-Nov-06 06:03N 51°07' E 001°20'0 0.0
2018-Nov-06 05:59N 51°07' E 001°20'0 0.0
2018-Nov-06 05:30N 51°07' E 001°20'0 0.6
2018-Nov-06 05:03N 51°07' E 001°20'111.2
2018-Nov-06 05:00N 51°07' E 001°21'816.4
2018-Nov-06 04:30N 51°04' E 001°33'919.3
2018-Nov-06 04:03N 50°58' E 001°44'119.4
2018-Nov-06 04:00N 50°58' E 001°45'4 7.2
2018-Nov-06 03:30N 50°58' E 001°51'0 0.0
2018-Nov-06 03:03N 50°58' E 001°51'0 0.0
2018-Nov-06 03:01N 50°58' E 001°51'0 0.0
2018-Nov-06 02:31N 50°58' E 001°51'3 6.7
2018-Nov-06 02:03N 50°58' E 001°46'117.2
2018-Nov-06 02:00N 50°58' E 001°45'918.5
2018-Nov-06 01:30N 51°02' E 001°32'817.0
2018-Nov-06 01:03N 51°06' E 001°21'6 3.9
2018-Nov-05 23:30N 51°05' E 001°31'818.6
2018-Nov-05 23:03N 50°60' E 001°41'117.4
2018-Nov-05 23:00N 50°59' E 001°43'510.7
2018-Nov-05 22:30N 50°58' E 001°51'0 0.0
2018-Nov-05 22:03N 50°58' E 001°51'0 0.1
2018-Nov-05 22:00N 50°58' E 001°51'0 0.0
2018-Nov-05 21:29N 50°58' E 001°51'613.5
2018-Nov-05 21:03N 50°58' E 001°42'118.4
2018-Nov-05 21:00N 50°59' E 001°40'917.9
2018-Nov-05 20:30N 51°03' E 001°28'711.5
2018-Nov-05 19:56N 51°07' E 001°20'0 0.0
2018-Nov-05 19:14N 51°07' E 001°20'0 2.0
2018-Nov-05 19:03N 51°07' E 001°21'112.7
2018-Nov-05 19:00N 51°07' E 001°22'918.0
2018-Nov-05 18:31N 51°05' E 001°35'818.7
2018-Nov-05 18:03N 50°58' E 001°44'119.0
2018-Nov-05 18:00N 50°58' E 001°46'3 6.8
2018-Nov-05 17:30N 50°58' E 001°51'0 0.0
2018-Nov-05 17:03N 50°58' E 001°51'0 0.0
2018-Nov-05 17:00N 50°58' E 001°51'612.6
2018-Nov-05 16:31N 50°58' E 001°41'716.3
2018-Nov-05 16:03N 51°01' E 001°30'117.9
2018-Nov-05 16:00N 51°02' E 001°29'8 8.8
2018-Nov-05 15:05N 51°07' E 001°20'0 0.0
2018-Nov-05 15:00N 51°07' E 001°20'1 2.3
2018-Nov-05 14:30N 51°07' E 001°22'919.2
2018-Nov-05 14:04N 51°03' E 001°34'1018.6
2018-Nov-05 13:30N 50°58' E 001°48'2 3.9
2018-Nov-05 13:03N 50°58' E 001°51'0 0.1
2018-Nov-05 13:00N 50°58' E 001°51'0 0.0
2018-Nov-05 12:30N 50°58' E 001°51'512.0
2018-Nov-05 12:03N 50°58' E 001°43'120.7
2018-Nov-05 12:01N 50°58' E 001°41'918.7
2018-Nov-05 11:31N 51°03' E 001°29'715.1
2018-Nov-05 11:03N 51°07' E 001°20'0 0.0
2018-Nov-05 11:00N 51°07' E 001°20'0 0.0
2018-Nov-05 10:30N 51°07' E 001°20'2 4.2
2018-Nov-05 10:04N 51°07' E 001°23'117.5
2018-Nov-05 10:00N 51°07' E 001°24'918.8
2018-Nov-05 09:30N 51°02' E 001°37'816.8
2018-Nov-05 09:03N 50°58' E 001°48'116.5
2018-Nov-05 09:00N 50°58' E 001°49'1 2.6
2018-Nov-05 08:30N 50°58' E 001°51'0 0.0
2018-Nov-05 08:03N 50°58' E 001°51'0 0.0
2018-Nov-05 08:00N 50°58' E 001°51'4 7.0
2018-Nov-05 07:30N 50°58' E 001°45'817.9
2018-Nov-05 07:03N 51°00' E 001°33'119.7
2018-Nov-05 07:00N 51°01' E 001°33'918.6
2018-Nov-05 06:30N 51°07' E 001°21'1 1.7
2018-Nov-05 06:03N 51°07' E 001°20'0 0.0
2018-Nov-05 06:01N 51°07' E 001°20'0 0.0
2018-Nov-05 05:30N 51°07' E 001°20'0 0.4
2018-Nov-05 05:03N 51°07' E 001°20'010.3
2018-Nov-05 05:01N 51°07' E 001°21'816.9
2018-Nov-05 04:30N 51°03' E 001°33'919.4
2018-Nov-05 04:03N 50°58' E 001°44'118.8
2018-Nov-05 04:00N 50°58' E 001°46'3 6.9
2018-Nov-05 03:30N 50°58' E 001°51'0 0.0
2018-Nov-05 03:03N 50°58' E 001°51'0 0.1
2018-Nov-05 03:00N 50°58' E 001°51'0 0.0
2018-Nov-05 02:30N 50°58' E 001°51'1 2.1
2018-Nov-05 02:04N 50°58' E 001°50'116.2
2018-Nov-05 02:01N 50°58' E 001°49'917.1
2018-Nov-05 01:30N 51°00' E 001°35'819.2
2018-Nov-05 01:04N 51°05' E 001°24'119.9
2018-Nov-05 01:01N 51°06' E 001°23'2 4.7
2018-Nov-05 00:30N 51°07' E 001°20'0 0.1
2018-Nov-05 00:03N 51°07' E 001°20'0 1.4
2018-Nov-05 00:00N 51°07' E 001°20'713.9
2018-Nov-04 23:31N 51°05' E 001°30'818.6
2018-Nov-04 23:03N 51°00' E 001°41'118.0
2018-Nov-04 23:00N 50°60' E 001°43'611.0
2018-Nov-04 22:30N 50°58' E 001°51'0 0.0
2018-Nov-04 22:02N 50°58' E 001°51'0 0.0
2018-Nov-04 22:00N 50°58' E 001°51'0 0.0
2018-Nov-04 21:30N 50°58' E 001°51'511.5
2018-Nov-04 21:03N 50°58' E 001°43'120.3
2018-Nov-04 21:00N 50°58' E 001°41'918.7
2018-Nov-04 20:30N 51°04' E 001°29'715.0
2018-Nov-04 20:03N 51°07' E 001°20'0 0.0
2018-Nov-04 20:00N 51°07' E 001°20'0 0.0
2018-Nov-04 19:30N 51°07' E 001°20'1 1.3
2018-Nov-04 19:03N 51°07' E 001°21'113.5
2018-Nov-04 19:00N 51°07' E 001°22'714.8
2018-Nov-04 18:31N 51°04' E 001°32'919.9
2018-Nov-04 18:03N 50°58' E 001°44'119.1
2018-Nov-04 18:01N 50°58' E 001°45'4 6.9
2018-Nov-04 17:28N 50°58' E 001°51'0 0.0
2018-Nov-04 16:58N 50°58' E 001°51'613.1
2018-Nov-04 16:30N 50°59' E 001°41'818.8
2018-Nov-04 16:03N 51°03' E 001°30'119.0
2018-Nov-04 16:00N 51°04' E 001°29'712.8
2018-Nov-04 15:30N 51°07' E 001°20'0 0.0
2018-Nov-04 15:03N 51°07' E 001°20'0 0.0
2018-Nov-04 15:00N 51°07' E 001°20'1 1.6
2018-Nov-04 14:30N 51°07' E 001°21'919.4
2018-Nov-04 14:04N 51°03' E 001°34'119.9
2018-Nov-04 14:01N 51°03' E 001°35'918.8
2018-Nov-04 13:30N 50°58' E 001°48'2 3.8
2018-Nov-04 13:02N 50°58' E 001°51'0 0.2
2018-Nov-04 13:01N 50°58' E 001°51'0 0.0
2018-Nov-04 12:30N 50°58' E 001°51'613.4
2018-Nov-04 12:02N 50°59' E 001°41'121.0
2018-Nov-04 12:00N 50°59' E 001°40'1019.4
2018-Nov-04 11:30N 51°05' E 001°27'511.7
2018-Nov-04 11:03N 51°07' E 001°20'0 0.0
2018-Nov-04 11:00N 51°07' E 001°20'0 0.0
2018-Nov-04 10:30N 51°07' E 001°20'1 3.3
2018-Nov-04 10:03N 51°07' E 001°22'116.9
2018-Nov-04 10:01N 51°07' E 001°24'917.7
2018-Nov-04 09:30N 51°02' E 001°36'817.7
2018-Nov-04 09:03N 50°58' E 001°46'116.8
2018-Nov-04 09:00N 50°58' E 001°48'2 4.1
2018-Nov-04 08:29N 50°58' E 001°51'0 0.0
2018-Nov-04 08:03N 50°58' E 001°51'0 0.5
2018-Nov-04 07:59N 50°58' E 001°51'815.6
2018-Nov-04 07:27N 50°60' E 001°38'819.1
2018-Nov-04 07:03N 51°04' E 001°28'118.7
2018-Nov-04 07:00N 51°05' E 001°27'510.2
2018-Nov-04 06:30N 51°07' E 001°20'0 0.0
2018-Nov-04 06:04N 51°07' E 001°20'0 0.0
2018-Nov-04 06:01N 51°07' E 001°20'0 0.0
2018-Nov-04 05:30N 51°07' E 001°20'0 0.0
2018-Nov-04 05:03N 51°07' E 001°20'0 0.0
2018-Nov-04 05:00N 51°07' E 001°20'611.7
2018-Nov-04 04:30N 51°06' E 001°29'919.6
2018-Nov-04 04:03N 51°00' E 001°40'120.2
2018-Nov-04 04:00N 50°60' E 001°41'611.9
2018-Nov-04 03:28N 50°58' E 001°51'0 0.0
2018-Nov-04 03:03N 50°58' E 001°51'0 0.0
2018-Nov-04 03:00N 50°58' E 001°51'0 0.0
2018-Nov-04 02:29N 50°58' E 001°51'1 3.2
2018-Nov-04 02:03N 50°58' E 001°49'117.0
2018-Nov-04 02:00N 50°58' E 001°47'917.5
2018-Nov-04 01:30N 51°00' E 001°34'818.4
2018-Nov-04 01:03N 51°06' E 001°24'118.6
2018-Nov-04 01:00N 51°06' E 001°23'2 4.5
2018-Nov-04 00:31N 51°07' E 001°20'0 0.0
2018-Nov-04 00:03N 51°07' E 001°20'0 0.3
2018-Nov-04 00:00N 51°07' E 001°20'613.0
2018-Nov-03 23:30N 51°06' E 001°30'919.3
2018-Nov-03 23:03N 51°00' E 001°41'118.9
2018-Nov-03 23:01N 50°60' E 001°42'611.5
2018-Nov-03 22:29N 50°58' E 001°51'15 7.4
2018-Nov-03 20:31N 51°04' E 001°30'714.9
2018-Nov-03 20:03N 51°07' E 001°20'0 0.0
2018-Nov-03 20:00N 51°07' E 001°20'0 0.0
2018-Nov-03 19:29N 51°07' E 001°20'1 2.2
2018-Nov-03 19:04N 51°07' E 001°22'116.9
2018-Nov-03 19:01N 51°07' E 001°23'918.0
2018-Nov-03 18:31N 51°03' E 001°35'818.3
2018-Nov-03 18:03N 50°58' E 001°46'117.6
2018-Nov-03 18:01N 50°58' E 001°47'2 4.3
2018-Nov-03 17:29N 50°58' E 001°51'0 0.0
2018-Nov-03 17:02N 50°58' E 001°51'0 0.0
2018-Nov-03 16:56N 50°58' E 001°51'613.4
2018-Nov-03 16:31N 50°58' E 001°42'818.5
2018-Nov-03 16:03N 51°03' E 001°31'118.7
2018-Nov-03 16:01N 51°03' E 001°30'714.0
2018-Nov-03 15:29N 51°07' E 001°20'0 0.0
2018-Nov-03 15:03N 51°07' E 001°20'0 0.0
2018-Nov-03 15:00N 51°07' E 001°20'2 4.3
2018-Nov-03 14:30N 51°07' E 001°23'818.9
2018-Nov-03 14:03N 51°02' E 001°35'119.4
2018-Nov-03 14:00N 51°01' E 001°36'918.6
2018-Nov-03 13:30N 50°58' E 001°49'1 2.0
2018-Nov-03 13:01N 50°58' E 001°51'0 0.0
2018-Nov-03 13:01N 50°58' E 001°51'0 0.2
2018-Nov-03 12:29N 50°58' E 001°51'715.3
2018-Nov-03 12:03N 50°58' E 001°40'119.0
2018-Nov-03 12:00N 50°59' E 001°39'918.5
2018-Nov-03 11:30N 51°04' E 001°27'612.0
2018-Nov-03 11:03N 51°07' E 001°20'0 0.0
2018-Nov-03 11:00N 51°07' E 001°20'0 0.0
2018-Nov-03 10:30N 51°07' E 001°20'0 1.1
2018-Nov-03 10:04N 51°07' E 001°21'114.3
2018-Nov-03 10:00N 51°07' E 001°22'918.3
2018-Nov-03 09:30N 51°03' E 001°35'818.2
2018-Nov-03 09:04N 50°58' E 001°45'116.5
2018-Nov-03 09:00N 50°58' E 001°47'3 5.4
2018-Nov-03 08:30N 50°58' E 001°51'0 0.0
2018-Nov-03 08:02N 50°58' E 001°51'0 0.0
2018-Nov-03 07:57N 50°58' E 001°51'4 8.4
2018-Nov-03 07:30N 50°58' E 001°45'919.2
2018-Nov-03 07:03N 51°02' E 001°33'118.6
2018-Nov-03 07:00N 51°02' E 001°32'917.0
2018-Nov-03 06:29N 51°07' E 001°20'0 0.0
2018-Nov-03 06:03N 51°07' E 001°20'0 0.0
2018-Nov-03 06:00N 51°07' E 001°20'0 0.0
2018-Nov-03 05:30N 51°07' E 001°20'0 0.4
2018-Nov-03 05:03N 51°07' E 001°20'0 9.2
2018-Nov-03 05:00N 51°07' E 001°21'917.7
2018-Nov-03 04:31N 51°04' E 001°34'919.2
2018-Nov-03 04:04N 50°58' E 001°44'118.0
2018-Nov-03 04:01N 50°58' E 001°46'3 6.8
2018-Nov-03 03:30N 50°58' E 001°51'0 0.0
2018-Nov-03 03:03N 50°58' E 001°51'0 0.0
2018-Nov-03 03:00N 50°58' E 001°51'0 0.0
2018-Nov-03 02:29N 50°58' E 001°51'2 5.6
2018-Nov-03 02:03N 50°58' E 001°47'116.8
2018-Nov-03 02:01N 50°58' E 001°46'816.6
2018-Nov-03 01:30N 50°59' E 001°33'919.2
2018-Nov-03 01:03N 51°06' E 001°24'119.0
2018-Nov-03 01:00N 51°06' E 001°23'2 3.8
2018-Nov-03 00:29N 51°07' E 001°20'0 0.0
2018-Nov-03 00:03N 51°07' E 001°20'0 0.0
2018-Nov-03 00:00N 51°07' E 001°20'612.0
2018-Nov-02 23:31N 51°05' E 001°29'918.9
2018-Nov-02 23:03N 51°00' E 001°40'118.9
2018-Nov-02 23:01N 50°60' E 001°41'612.7
2018-Nov-02 22:30N 50°58' E 001°51'0 0.0
2018-Nov-02 22:03N 50°58' E 001°51'0 0.0
2018-Nov-02 22:00N 50°58' E 001°51'0 0.0
2018-Nov-02 21:29N 50°58' E 001°51'510.5
2018-Nov-02 21:03N 50°58' E 001°44'119.2
2018-Nov-02 21:00N 50°58' E 001°42'1019.1
2018-Nov-02 20:30N 51°03' E 001°29'715.9
2018-Nov-02 20:03N 51°07' E 001°20'0 0.0
2018-Nov-02 20:00N 51°07' E 001°20'0 0.0
2018-Nov-02 19:30N 51°07' E 001°20'1 2.0
2018-Nov-02 19:04N 51°07' E 001°21'117.2
2018-Nov-02 19:01N 51°07' E 001°23'918.1
2018-Nov-02 18:30N 51°03' E 001°36'818.1
2018-Nov-02 18:03N 50°58' E 001°46'116.7
2018-Nov-02 18:00N 50°58' E 001°47'2 2.3
2018-Nov-02 16:58N 50°58' E 001°51'613.3
2018-Nov-02 16:29N 50°59' E 001°41'819.0
2018-Nov-02 16:04N 51°03' E 001°30'118.9
2018-Nov-02 16:01N 51°03' E 001°28'713.3
2018-Nov-02 15:31N 51°07' E 001°20'0 0.0
2018-Nov-02 15:04N 51°07' E 001°20'0 0.0
2018-Nov-02 14:58N 51°07' E 001°20'2 4.7
2018-Nov-02 14:31N 51°07' E 001°23'918.2
2018-Nov-02 14:01N 51°04' E 001°37'917.9
2018-Nov-02 13:31N 50°58' E 001°48'2 3.2
2018-Nov-02 12:55N 50°58' E 001°51'0 0.0
2018-Nov-02 12:30N 50°58' E 001°51'613.4
2018-Nov-02 12:03N 50°58' E 001°41'118.4
2018-Nov-02 12:00N 50°59' E 001°40'918.1
2018-Nov-02 11:30N 51°03' E 001°28'613.2
2018-Nov-02 11:02N 51°07' E 001°20'0 0.3
2018-Nov-02 11:00N 51°07' E 001°20'0 0.0
2018-Nov-02 10:30N 51°07' E 001°20'1 1.3
2018-Nov-02 10:03N 51°07' E 001°21'116.7
2018-Nov-02 10:01N 51°07' E 001°22'918.0
2018-Nov-02 09:31N 51°04' E 001°35'818.6
2018-Nov-02 09:04N 50°58' E 001°45'117.7
2018-Nov-02 09:01N 50°58' E 001°47'3 5.5
2018-Nov-02 08:30N 50°58' E 001°51'0 0.0
2018-Nov-02 08:03N 50°58' E 001°51'0 0.0
2018-Nov-02 07:59N 50°58' E 001°51'5 9.6
2018-Nov-02 07:30N 50°58' E 001°44'919.6
2018-Nov-02 07:03N 51°02' E 001°31'119.4
2018-Nov-02 07:01N 51°03' E 001°30'815.5
2018-Nov-02 06:30N 51°07' E 001°20'0 0.0
2018-Nov-02 06:03N 51°07' E 001°20'0 0.0
2018-Nov-02 06:00N 51°07' E 001°20'0 0.0
2018-Nov-02 05:30N 51°07' E 001°20'2 4.4
2018-Nov-02 05:03N 51°07' E 001°23'117.9
2018-Nov-02 05:00N 51°07' E 001°24'917.6
2018-Nov-02 04:31N 51°02' E 001°36'817.4
2018-Nov-02 04:03N 50°58' E 001°47'117.8
2018-Nov-02 04:00N 50°58' E 001°49'2 3.2
2018-Nov-02 03:30N 50°58' E 001°51'0 0.0
2018-Nov-02 03:03N 50°58' E 001°51'0 0.0
2018-Nov-02 03:00N 50°58' E 001°51'0 0.0
2018-Nov-02 02:30N 50°58' E 001°51'4 8.8
2018-Nov-02 02:03N 50°58' E 001°45'117.4
2018-Nov-02 02:00N 50°58' E 001°43'917.4
2018-Nov-02 01:30N 51°02' E 001°31'818.3
2018-Nov-02 01:04N 51°07' E 001°20'110.8
2018-Nov-02 01:01N 51°07' E 001°20'1 5.6
2018-Nov-02 00:55N 51°07' E 001°20'0 0.0
2018-Nov-02 00:36N 51°07' E 001°20'0 0.0
2018-Nov-02 00:30N 51°07' E 001°20'0 0.0
2018-Nov-02 00:03N 51°07' E 001°20'0 1.2
2018-Nov-01 23:58N 51°07' E 001°20'716.1
2018-Nov-01 23:30N 51°05' E 001°31'818.8
2018-Nov-01 23:03N 50°60' E 001°42'119.0
2018-Nov-01 23:00N 50°59' E 001°43'510.1
2018-Nov-01 22:31N 50°58' E 001°51'0 0.0
2018-Nov-01 22:03N 50°58' E 001°51'0 0.0
2018-Nov-01 21:58N 50°58' E 001°51'0 0.1
2018-Nov-01 21:27N 50°58' E 001°51'614.8
2018-Nov-01 21:04N 50°58' E 001°42'118.9
2018-Nov-01 21:01N 50°58' E 001°40'919.0
2018-Nov-01 20:31N 51°04' E 001°28'613.6
2018-Nov-01 20:03N 51°07' E 001°20'0 0.0
2018-Nov-01 20:00N 51°07' E 001°20'0 0.0
2018-Nov-01 19:30N 51°07' E 001°20'2 4.4
2018-Nov-01 19:04N 51°07' E 001°23'117.2
2018-Nov-01 19:01N 51°07' E 001°24'917.5
2018-Nov-01 18:31N 51°02' E 001°37'817.5
2018-Nov-01 18:03N 50°58' E 001°47'117.1
2018-Nov-01 18:00N 50°58' E 001°48'2 2.2
2018-Nov-01 17:14N 50°58' E 001°51'0 0.2
2018-Nov-01 16:57N 50°58' E 001°51'716.3
2018-Nov-01 16:30N 50°59' E 001°39'818.9
2018-Nov-01 16:04N 51°04' E 001°28'118.5
2018-Nov-01 16:01N 51°04' E 001°27'510.7
2018-Nov-01 15:30N 51°07' E 001°20'0 0.0
2018-Nov-01 15:03N 51°07' E 001°20'0 0.1
2018-Nov-01 15:00N 51°07' E 001°20'3 5.8
2018-Nov-01 14:31N 51°06' E 001°24'1019.2
2018-Nov-01 14:01N 51°02' E 001°37'917.5
2018-Nov-01 13:30N 50°58' E 001°50'0 1.1
2018-Nov-01 13:04N 50°58' E 001°51'0 0.0
2018-Nov-01 13:00N 50°58' E 001°51'0 0.6
2018-Nov-01 12:30N 50°58' E 001°51'716.2
2018-Nov-01 12:03N 50°59' E 001°39'118.5
2018-Nov-01 12:00N 50°59' E 001°38'918.4
2018-Nov-01 11:30N 51°05' E 001°26'510.0
2018-Nov-01 11:03N 51°07' E 001°20'0 0.0
2018-Nov-01 11:00N 51°07' E 001°20'0 0.0
2018-Nov-01 10:30N 51°07' E 001°20'0 0.2
2018-Nov-01 10:03N 51°07' E 001°20'0 2.7
2018-Nov-01 10:00N 51°07' E 001°20'918.0
2018-Nov-01 09:30N 51°03' E 001°33'919.4
2018-Nov-01 09:03N 50°58' E 001°45'118.1
2018-Nov-01 09:00N 50°58' E 001°46'3 6.4
2018-Nov-01 08:30N 50°58' E 001°51'0 0.0
2018-Nov-01 08:03N 50°58' E 001°51'0 0.0
2018-Nov-01 08:00N 50°58' E 001°51'612.9
2018-Nov-01 07:30N 50°59' E 001°41'818.6
2018-Nov-01 07:03N 51°03' E 001°30'118.6
2018-Nov-01 07:00N 51°03' E 001°28'713.1
2018-Nov-01 06:30N 51°07' E 001°20'0 0.0
2018-Nov-01 06:03N 51°07' E 001°20'0 0.0
2018-Nov-01 06:00N 51°07' E 001°20'0 0.0
2018-Nov-01 05:29N 51°07' E 001°20'1 1.8
2018-Nov-01 05:03N 51°07' E 001°21'116.7
2018-Nov-01 05:00N 51°07' E 001°23'918.1
2018-Nov-01 04:30N 51°03' E 001°36'818.2
2018-Nov-01 04:03N 50°58' E 001°46'116.6
2018-Nov-01 04:00N 50°58' E 001°47'3 5.2
2018-Nov-01 03:30N 50°58' E 001°51'0 0.0
2018-Nov-01 03:03N 50°58' E 001°51'0 0.0
2018-Nov-01 03:00N 50°58' E 001°51'  
Track history (hours):
 
Tides and Currents Weather Stations Pressure Air Temp Water Temp Dewpoint Dewpoint Depression Visibility Wind Speed Wind Dir Waves Ship Positions

Pride Of Kent

Operator: P & O Ferries

Last reported at 2018-Nov-11 02:32 UTC. Time now 2018-Nov-13 06:53 UTC.
Position N 50°58' E 001°51'.

Length 180 m; draft 6 m.

Type: Passenger vessel. MMSI: 232009000.

Date/timePositionNaut miles runAvg speedWind from/ knotsBaromVisibWave heightAir tempDewpointWater temp
2018-Nov-11 02:32N 50°58' E 001°51'3 6.1
2018-Nov-11 02:02N 50°58' E 001°46'816.1
2018-Nov-11 01:33N 51°01' E 001°34'918.0
2018-Nov-11 01:02N 51°06' E 001°23'2 3.4
2018-Nov-11 00:25N 51°07' E 001°20'0 0.5
2018-Nov-11 00:02N 51°07' E 001°20'714.1
2018-Nov-10 23:32N 51°04' E 001°30'917.2
2018-Nov-10 23:02N 50°60' E 001°42'610.4
2018-Nov-10 22:28N 50°58' E 001°51'0 0.0
2018-Nov-10 22:02N 50°58' E 001°51'0 0.0
2018-Nov-10 21:31N 50°58' E 001°51'612.6
2018-Nov-10 21:02N 50°58' E 001°41'917.4
2018-Nov-10 20:33N 51°03' E 001°30'814.7
2018-Nov-10 20:02N 51°07' E 001°20'0 0.0
2018-Nov-10 19:32N 51°07' E 001°20'1 1.7
2018-Nov-10 19:02N 51°07' E 001°21'918.9
2018-Nov-10 18:32N 51°02' E 001°34'1019.4
2018-Nov-10 18:02N 50°58' E 001°48'2 3.7
2018-Nov-10 17:32N 50°58' E 001°51'0 0.0
2018-Nov-10 16:59N 50°58' E 001°51'410.0
2018-Nov-10 16:32N 50°58' E 001°44'918.9
2018-Nov-10 16:02N 51°03' E 001°31'815.8
2018-Nov-10 15:31N 51°07' E 001°20'0 0.0
2018-Nov-10 15:02N 51°07' E 001°20'2 3.3
2018-Nov-10 14:32N 51°07' E 001°23'918.0
2018-Nov-10 14:03N 51°02' E 001°35'917.1
2018-Nov-10 13:32N 50°58' E 001°47'3 5.5
2018-Nov-10 13:02N 50°58' E 001°51'0 0.0
2018-Nov-10 12:32N 50°58' E 001°51'714.1
2018-Nov-10 12:02N 50°60' E 001°40'918.9
2018-Nov-10 11:32N 51°04' E 001°27'5 7.4
2018-Nov-10 10:48N 51°07' E 001°20'0 0.0
2018-Nov-10 10:27N 51°07' E 001°20'1 1.7
2018-Nov-10 10:02N 51°07' E 001°21'918.7
2018-Nov-10 09:32N 51°03' E 001°34'918.7
2018-Nov-10 09:02N 50°58' E 001°47'2 4.8
2018-Nov-10 08:32N 50°58' E 001°51'0 0.0
2018-Nov-10 08:02N 50°58' E 001°51'612.8
2018-Nov-10 07:33N 50°58' E 001°41'917.9
2018-Nov-10 07:03N 51°03' E 001°29'713.9
2018-Nov-10 06:32N 51°07' E 001°20'0 0.0
2018-Nov-10 06:02N 51°07' E 001°20'1 1.5
2018-Nov-10 05:32N 51°07' E 001°21'917.6
2018-Nov-10 05:02N 51°04' E 001°34'918.7
2018-Nov-10 04:32N 50°58' E 001°46'4 7.4
2018-Nov-10 04:02N 50°58' E 001°52'0 0.0
2018-Nov-10 03:33N 50°58' E 001°52'4 7.8
2018-Nov-10 03:02N 50°58' E 001°46'816.2
2018-Nov-10 02:33N 51°01' E 001°34'612.9
2018-Nov-10 02:02N 51°05' E 001°26'4 4.1
2018-Nov-10 01:01N 51°07' E 001°20'1 1.5
2018-Nov-10 00:32N 51°07' E 001°21'2 4.7
2018-Nov-10 00:03N 51°06' E 001°25'4 8.2
2018-Nov-09 23:32N 51°04' E 001°30'918.4
2018-Nov-09 23:02N 50°59' E 001°42'611.7
2018-Nov-09 22:32N 50°58' E 001°52'0 0.0
2018-Nov-09 22:02N 50°58' E 001°52'0 0.5
2018-Nov-09 21:32N 50°58' E 001°51'815.3
2018-Nov-09 21:02N 50°59' E 001°39'917.8
2018-Nov-09 20:32N 51°03' E 001°27'6 8.2
2018-Nov-09 19:49N 51°07' E 001°20'0 0.2
2018-Nov-09 19:08N 51°07' E 001°20'0 4.3
2018-Nov-09 19:03N 51°07' E 001°21'918.3
2018-Nov-09 18:32N 51°04' E 001°34'1019.3
2018-Nov-09 18:03N 50°58' E 001°46'3 5.5
2018-Nov-09 17:31N 50°58' E 001°51'0 0.0
2018-Nov-09 17:02N 50°58' E 001°51'713.3
2018-Nov-09 16:32N 50°58' E 001°40'816.4
2018-Nov-09 16:03N 51°03' E 001°29'714.3
2018-Nov-09 15:31N 51°07' E 001°20'0 0.0
2018-Nov-09 15:02N 51°07' E 001°20'2 3.4
2018-Nov-09 14:32N 51°07' E 001°23'918.0
2018-Nov-09 14:02N 51°03' E 001°35'917.4
2018-Nov-09 13:32N 50°58' E 001°47'2 2.9
2018-Nov-09 12:41N 50°58' E 001°51'0 0.0
2018-Nov-09 12:24N 50°58' E 001°51'410.1
2018-Nov-09 12:03N 50°58' E 001°45'1019.6
2018-Nov-09 11:32N 51°02' E 001°31'917.3
2018-Nov-09 11:02N 51°07' E 001°20'0 0.6
2018-Nov-09 10:32N 51°07' E 001°20'0 0.3
2018-Nov-09 10:02N 51°07' E 001°20'816.8
2018-Nov-09 09:33N 51°04' E 001°32'918.9
2018-Nov-09 09:03N 50°58' E 001°45'4 8.1
2018-Nov-09 08:32N 50°58' E 001°51'0 0.0
2018-Nov-09 08:02N 50°58' E 001°51'2 4.6
2018-Nov-09 07:32N 50°58' E 001°47'816.3
2018-Nov-09 07:02N 51°01' E 001°35'917.7
2018-Nov-09 06:32N 51°06' E 001°24'3 5.3
2018-Nov-09 06:02N 51°07' E 001°20'0 0.0
2018-Nov-09 05:32N 51°07' E 001°20'1 1.3
2018-Nov-09 05:02N 51°07' E 001°21'816.6
2018-Nov-09 04:33N 51°03' E 001°33'917.0
2018-Nov-09 04:02N 50°59' E 001°44'4 8.7
2018-Nov-09 03:32N 50°58' E 001°51'0 0.0
2018-Nov-09 03:01N 50°58' E 001°51'0 0.0
2018-Nov-09 02:29N 50°58' E 001°51'2 4.8
2018-Nov-09 02:02N 50°58' E 001°48'918.0
2018-Nov-09 01:32N 51°00' E 001°34'816.1
2018-Nov-09 01:03N 51°06' E 001°24'3 6.3
2018-Nov-09 00:32N 51°07' E 001°20'0 0.2
2018-Nov-09 00:01N 51°07' E 001°20'714.3
2018-Nov-08 23:32N 51°05' E 001°30'917.8
2018-Nov-08 23:02N 50°59' E 001°41'612.6
2018-Nov-08 22:32N 50°58' E 001°51'0 0.1
2018-Nov-08 22:00N 50°58' E 001°51'1 1.7
2018-Nov-08 21:33N 50°58' E 001°50'917.9
2018-Nov-08 21:02N 50°60' E 001°36'918.6
2018-Nov-08 20:33N 51°05' E 001°24'3 6.3
2018-Nov-08 20:02N 51°07' E 001°20'0 0.0
2018-Nov-08 19:32N 51°07' E 001°20'4 8.4
2018-Nov-08 19:02N 51°06' E 001°26'1019.8
2018-Nov-08 18:32N 51°00' E 001°39'815.1
2018-Nov-08 18:02N 50°58' E 001°51'0 0.2
2018-Nov-08 17:29N 50°58' E 001°51'0 0.4
2018-Nov-08 17:00N 50°58' E 001°51'715.3
2018-Nov-08 16:32N 50°59' E 001°40'918.8
2018-Nov-08 16:02N 51°04' E 001°27'611.2
2018-Nov-08 15:33N 51°07' E 001°20'0 0.0
2018-Nov-08 15:02N 51°07' E 001°20'4 7.3
2018-Nov-08 14:32N 51°06' E 001°26'918.9
2018-Nov-08 14:02N 51°01' E 001°38'816.6
2018-Nov-08 13:33N 50°58' E 001°51'0 0.6
2018-Nov-08 13:03N 50°58' E 001°51'0 0.0
2018-Nov-08 12:27N 50°58' E 001°51'613.7
2018-Nov-08 12:02N 50°58' E 001°42'1019.5
2018-Nov-08 11:32N 51°03' E 001°29'714.0
2018-Nov-08 11:02N 51°07' E 001°20'0 0.0
2018-Nov-08 10:32N 51°07' E 001°20'0 0.9
2018-Nov-08 10:02N 51°07' E 001°21'917.7
2018-Nov-08 09:32N 51°03' E 001°33'918.6
2018-Nov-08 09:02N 50°58' E 001°46'3 6.7
2018-Nov-08 08:32N 50°58' E 001°51'0 0.0
2018-Nov-08 08:00N 50°58' E 001°51'5 9.7
2018-Nov-08 07:32N 50°58' E 001°44'917.4
2018-Nov-08 07:02N 51°02' E 001°32'917.7
2018-Nov-08 06:32N 51°07' E 001°20'0 0.3
2018-Nov-08 05:59N 51°07' E 001°20'0 0.0
2018-Nov-08 05:23N 51°07' E 001°20'3 8.2
2018-Nov-08 05:02N 51°06' E 001°24'917.2
2018-Nov-08 04:32N 51°01' E 001°36'816.5
2018-Nov-08 04:02N 50°58' E 001°48'3 5.2
2018-Nov-08 03:32N 50°58' E 001°52'0 0.0
2018-Nov-08 03:03N 50°58' E 001°52'0 0.0
2018-Nov-08 02:32N 50°58' E 001°52'612.5
2018-Nov-08 02:02N 50°58' E 001°42'1019.7
2018-Nov-08 01:32N 51°04' E 001°29'711.5
2018-Nov-08 00:58N 51°07' E 001°20'0 0.0
2018-Nov-08 00:41N 51°07' E 001°20'0 0.0
2018-Nov-08 00:21N 51°07' E 001°20'2 6.1
2018-Nov-08 00:02N 51°07' E 001°23'816.8
2018-Nov-07 23:32N 51°03' E 001°35'816.6
2018-Nov-07 23:02N 50°58' E 001°45'4 7.2
2018-Nov-07 22:32N 50°58' E 001°51'0 0.0
2018-Nov-07 22:02N 50°58' E 001°51'510.7
2018-Nov-07 21:32N 50°58' E 001°43'1019.2
2018-Nov-07 21:02N 51°04' E 001°30'714.6
2018-Nov-07 20:32N 51°07' E 001°20'0 0.0
2018-Nov-07 20:02N 51°07' E 001°20'0 0.1
2018-Nov-07 19:32N 51°07' E 001°20'713.6
2018-Nov-07 19:03N 51°05' E 001°30'917.2
2018-Nov-07 18:33N 50°59' E 001°40'714.0
2018-Nov-07 18:03N 50°58' E 001°51'0 0.0
2018-Nov-07 17:33N 50°58' E 001°51'0 0.9
2018-Nov-07 17:02N 50°58' E 001°50'917.0
2018-Nov-07 16:32N 50°59' E 001°37'918.5
2018-Nov-07 16:02N 51°05' E 001°25'4 4.0
2018-Nov-07 15:00N 51°07' E 001°20'612.5
2018-Nov-07 14:33N 51°05' E 001°29'918.7
2018-Nov-07 14:03N 51°00' E 001°41'712.5
2018-Nov-07 13:31N 50°58' E 001°51'0 0.0
2018-Nov-07 13:02N 50°58' E 001°51'2 3.9
2018-Nov-07 12:32N 50°58' E 001°48'918.6
2018-Nov-07 12:02N 51°01' E 001°34'917.7
2018-Nov-07 11:32N 51°06' E 001°23'2 3.9
2018-Nov-07 10:59N 51°07' E 001°20'0 0.2
2018-Nov-07 10:28N 51°07' E 001°20'3 8.3
2018-Nov-07 10:02N 51°06' E 001°25'918.4
2018-Nov-07 09:32N 51°01' E 001°38'816.4
2018-Nov-07 09:03N 50°58' E 001°50'1 1.5
2018-Nov-07 08:32N 50°58' E 001°51'0 0.4
2018-Nov-07 08:02N 50°58' E 001°51'816.4
2018-Nov-07 07:33N 50°58' E 001°38'917.5
2018-Nov-07 07:02N 51°04' E 001°28'6 6.8
2018-Nov-07 06:11N 51°07' E 001°20'0 0.0
2018-Nov-07 05:51N 51°07' E 001°20'0 0.1
2018-Nov-07 05:26N 51°07' E 001°20'3 8.5
2018-Nov-07 05:03N 51°06' E 001°25'815.8
2018-Nov-07 04:33N 51°02' E 001°36'2 0.4
2018-Nov-06 23:30N 51°04' E 001°34'817.7
2018-Nov-06 23:03N 50°59' E 001°44'117.2
2018-Nov-06 23:00N 50°58' E 001°45'4 3.9
2018-Nov-06 22:00N 50°58' E 001°51'0 0.0
2018-Nov-06 21:30N 50°58' E 001°51'613.6
2018-Nov-06 21:03N 50°58' E 001°42'120.1
2018-Nov-06 21:00N 50°59' E 001°40'918.7
2018-Nov-06 20:31N 51°03' E 001°27'613.5
2018-Nov-06 20:03N 51°07' E 001°20'0 0.0
2018-Nov-06 20:00N 51°07' E 001°20'0 0.0
2018-Nov-06 19:31N 51°07' E 001°20'3 5.8
2018-Nov-06 19:03N 51°07' E 001°24'119.6
2018-Nov-06 19:00N 51°06' E 001°26'1019.6
2018-Nov-06 18:30N 51°01' E 001°39'817.5
2018-Nov-06 18:03N 50°58' E 001°50'0 5.6
2018-Nov-06 18:01N 50°58' E 001°51'0 0.5
2018-Nov-06 17:30N 50°58' E 001°51'0 0.0
2018-Nov-06 17:04N 50°58' E 001°51'0 0.1
2018-Nov-06 17:00N 50°58' E 001°51'612.5
2018-Nov-06 16:30N 50°59' E 001°41'818.1
2018-Nov-06 16:03N 51°03' E 001°30'118.4
2018-Nov-06 16:00N 51°04' E 001°29'713.6
2018-Nov-06 15:30N 51°07' E 001°20'0 0.0
2018-Nov-06 15:03N 51°07' E 001°20'0 0.0
2018-Nov-06 15:01N 51°07' E 001°20'2 4.8
2018-Nov-06 14:30N 51°07' E 001°24'817.9
2018-Nov-06 14:03N 51°03' E 001°35'119.7
2018-Nov-06 14:00N 51°02' E 001°36'917.8
2018-Nov-06 13:30N 50°58' E 001°49'2 2.5
2018-Nov-06 12:53N 50°58' E 001°51'0 0.0
2018-Nov-06 12:30N 50°58' E 001°51'510.4
2018-Nov-06 12:03N 50°58' E 001°43'120.6
2018-Nov-06 11:59N 50°59' E 001°42'919.3
2018-Nov-06 11:30N 51°03' E 001°29'714.8
2018-Nov-06 11:03N 51°07' E 001°20'0 0.0
2018-Nov-06 11:00N 51°07' E 001°20'0 0.0
2018-Nov-06 10:30N 51°07' E 001°20'2 4.6
2018-Nov-06 10:03N 51°07' E 001°23'117.2
2018-Nov-06 10:00N 51°07' E 001°25'918.7
2018-Nov-06 09:31N 51°01' E 001°37'816.9
2018-Nov-06 09:03N 50°58' E 001°48'115.8
2018-Nov-06 09:00N 50°58' E 001°49'1 2.6
2018-Nov-06 08:30N 50°58' E 001°51'0 0.0
2018-Nov-06 08:03N 50°58' E 001°51'0 0.0
2018-Nov-06 08:00N 50°58' E 001°51'612.2
2018-Nov-06 07:30N 50°59' E 001°41'818.0
2018-Nov-06 07:03N 51°02' E 001°30'117.3
2018-Nov-06 07:00N 51°03' E 001°29'714.1
2018-Nov-06 06:30N 51°07' E 001°20'0 0.0
2018-Nov-06 06:03N 51°07' E 001°20'0 0.0
2018-Nov-06 05:59N 51°07' E 001°20'0 0.0
2018-Nov-06 05:30N 51°07' E 001°20'0 0.6
2018-Nov-06 05:03N 51°07' E 001°20'111.2
2018-Nov-06 05:00N 51°07' E 001°21'816.4
2018-Nov-06 04:30N 51°04' E 001°33'919.3
2018-Nov-06 04:03N 50°58' E 001°44'119.4
2018-Nov-06 04:00N 50°58' E 001°45'4 7.2
2018-Nov-06 03:30N 50°58' E 001°51'0 0.0
2018-Nov-06 03:03N 50°58' E 001°51'0 0.0
2018-Nov-06 03:01N 50°58' E 001°51'0 0.0
2018-Nov-06 02:31N 50°58' E 001°51'3 6.7
2018-Nov-06 02:03N 50°58' E 001°46'117.2
2018-Nov-06 02:00N 50°58' E 001°45'918.5
2018-Nov-06 01:30N 51°02' E 001°32'817.0
2018-Nov-06 01:03N 51°06' E 001°21'6 3.9
2018-Nov-05 23:30N 51°05' E 001°31'818.6
2018-Nov-05 23:03N 50°60' E 001°41'117.4
2018-Nov-05 23:00N 50°59' E 001°43'510.7
2018-Nov-05 22:30N 50°58' E 001°51'0 0.0
2018-Nov-05 22:03N 50°58' E 001°51'0 0.1
2018-Nov-05 22:00N 50°58' E 001°51'0 0.0
2018-Nov-05 21:29N 50°58' E 001°51'613.5
2018-Nov-05 21:03N 50°58' E 001°42'118.4
2018-Nov-05 21:00N 50°59' E 001°40'917.9
2018-Nov-05 20:30N 51°03' E 001°28'711.5
2018-Nov-05 19:56N 51°07' E 001°20'0 0.0
2018-Nov-05 19:14N 51°07' E 001°20'0 2.0
2018-Nov-05 19:03N 51°07' E 001°21'112.7
2018-Nov-05 19:00N 51°07' E 001°22'918.0
2018-Nov-05 18:31N 51°05' E 001°35'818.7
2018-Nov-05 18:03N 50°58' E 001°44'119.0
2018-Nov-05 18:00N 50°58' E 001°46'3 6.8
2018-Nov-05 17:30N 50°58' E 001°51'0 0.0
2018-Nov-05 17:03N 50°58' E 001°51'0 0.0
2018-Nov-05 17:00N 50°58' E 001°51'612.6
2018-Nov-05 16:31N 50°58' E 001°41'716.3
2018-Nov-05 16:03N 51°01' E 001°30'117.9
2018-Nov-05 16:00N 51°02' E 001°29'8 8.8
2018-Nov-05 15:05N 51°07' E 001°20'0 0.0
2018-Nov-05 15:00N 51°07' E 001°20'1 2.3
2018-Nov-05 14:30N 51°07' E 001°22'919.2
2018-Nov-05 14:04N 51°03' E 001°34'1018.6
2018-Nov-05 13:30N 50°58' E 001°48'2 3.9
2018-Nov-05 13:03N 50°58' E 001°51'0 0.1
2018-Nov-05 13:00N 50°58' E 001°51'0 0.0
2018-Nov-05 12:30N 50°58' E 001°51'512.0
2018-Nov-05 12:03N 50°58' E 001°43'120.7
2018-Nov-05 12:01N 50°58' E 001°41'918.7
2018-Nov-05 11:31N 51°03' E 001°29'715.1
2018-Nov-05 11:03N 51°07' E 001°20'0 0.0
2018-Nov-05 11:00N 51°07' E 001°20'0 0.0
2018-Nov-05 10:30N 51°07' E 001°20'2 4.2
2018-Nov-05 10:04N 51°07' E 001°23'117.5
2018-Nov-05 10:00N 51°07' E 001°24'918.8
2018-Nov-05 09:30N 51°02' E 001°37'816.8
2018-Nov-05 09:03N 50°58' E 001°48'116.5
2018-Nov-05 09:00N 50°58' E 001°49'1 2.6
2018-Nov-05 08:30N 50°58' E 001°51'0 0.0
2018-Nov-05 08:03N 50°58' E 001°51'0 0.0
2018-Nov-05 08:00N 50°58' E 001°51'4 7.0
2018-Nov-05 07:30N 50°58' E 001°45'817.9
2018-Nov-05 07:03N 51°00' E 001°33'119.7
2018-Nov-05 07:00N 51°01' E 001°33'918.6
2018-Nov-05 06:30N 51°07' E 001°21'1 1.7
2018-Nov-05 06:03N 51°07' E 001°20'0 0.0
2018-Nov-05 06:01N 51°07' E 001°20'0 0.0
2018-Nov-05 05:30N 51°07' E 001°20'0 0.4
2018-Nov-05 05:03N 51°07' E 001°20'010.3
2018-Nov-05 05:01N 51°07' E 001°21'816.9
2018-Nov-05 04:30N 51°03' E 001°33'919.4
2018-Nov-05 04:03N 50°58' E 001°44'118.8
2018-Nov-05 04:00N 50°58' E 001°46'3 6.9
2018-Nov-05 03:30N 50°58' E 001°51'0 0.0
2018-Nov-05 03:03N 50°58' E 001°51'0 0.1
2018-Nov-05 03:00N 50°58' E 001°51'0 0.0
2018-Nov-05 02:30N 50°58' E 001°51'1 2.1
2018-Nov-05 02:04N 50°58' E 001°50'116.2
2018-Nov-05 02:01N 50°58' E 001°49'917.1
2018-Nov-05 01:30N 51°00' E 001°35'819.2
2018-Nov-05 01:04N 51°05' E 001°24'119.9
2018-Nov-05 01:01N 51°06' E 001°23'2 4.7
2018-Nov-05 00:30N 51°07' E 001°20'0 0.1
2018-Nov-05 00:03N 51°07' E 001°20'0 1.4
2018-Nov-05 00:00N 51°07' E 001°20'713.9
2018-Nov-04 23:31N 51°05' E 001°30'818.6
2018-Nov-04 23:03N 51°00' E 001°41'118.0
2018-Nov-04 23:00N 50°60' E 001°43'611.0
2018-Nov-04 22:30N 50°58' E 001°51'0 0.0
2018-Nov-04 22:02N 50°58' E 001°51'0 0.0
2018-Nov-04 22:00N 50°58' E 001°51'0 0.0
2018-Nov-04 21:30N 50°58' E 001°51'511.5
2018-Nov-04 21:03N 50°58' E 001°43'120.3
2018-Nov-04 21:00N 50°58' E 001°41'918.7
2018-Nov-04 20:30N 51°04' E 001°29'715.0
2018-Nov-04 20:03N 51°07' E 001°20'0 0.0
2018-Nov-04 20:00N 51°07' E 001°20'0 0.0
2018-Nov-04 19:30N 51°07' E 001°20'1 1.3
2018-Nov-04 19:03N 51°07' E 001°21'113.5
2018-Nov-04 19:00N 51°07' E 001°22'714.8
2018-Nov-04 18:31N 51°04' E 001°32'919.9
2018-Nov-04 18:03N 50°58' E 001°44'119.1
2018-Nov-04 18:01N 50°58' E 001°45'4 6.9
2018-Nov-04 17:28N 50°58' E 001°51'0 0.0
2018-Nov-04 16:58N 50°58' E 001°51'613.1
2018-Nov-04 16:30N 50°59' E 001°41'818.8
2018-Nov-04 16:03N 51°03' E 001°30'119.0
2018-Nov-04 16:00N 51°04' E 001°29'712.8
2018-Nov-04 15:30N 51°07' E 001°20'0 0.0
2018-Nov-04 15:03N 51°07' E 001°20'0 0.0
2018-Nov-04 15:00N 51°07' E 001°20'1 1.6
2018-Nov-04 14:30N 51°07' E 001°21'919.4
2018-Nov-04 14:04N 51°03' E 001°34'119.9
2018-Nov-04 14:01N 51°03' E 001°35'918.8
2018-Nov-04 13:30N 50°58' E 001°48'2 3.8
2018-Nov-04 13:02N 50°58' E 001°51'0 0.2
2018-Nov-04 13:01N 50°58' E 001°51'0 0.0
2018-Nov-04 12:30N 50°58' E 001°51'613.4
2018-Nov-04 12:02N 50°59' E 001°41'121.0
2018-Nov-04 12:00N 50°59' E 001°40'1019.4
2018-Nov-04 11:30N 51°05' E 001°27'511.7
2018-Nov-04 11:03N 51°07' E 001°20'0 0.0
2018-Nov-04 11:00N 51°07' E 001°20'0 0.0
2018-Nov-04 10:30N 51°07' E 001°20'1 3.3
2018-Nov-04 10:03N 51°07' E 001°22'116.9
2018-Nov-04 10:01N 51°07' E 001°24'917.7
2018-Nov-04 09:30N 51°02' E 001°36'817.7
2018-Nov-04 09:03N 50°58' E 001°46'116.8
2018-Nov-04 09:00N 50°58' E 001°48'2 4.1
2018-Nov-04 08:29N 50°58' E 001°51'0 0.0
2018-Nov-04 08:03N 50°58' E 001°51'0 0.5
2018-Nov-04 07:59N 50°58' E 001°51'815.6
2018-Nov-04 07:27N 50°60' E 001°38'819.1
2018-Nov-04 07:03N 51°04' E 001°28'118.7
2018-Nov-04 07:00N 51°05' E 001°27'510.2
2018-Nov-04 06:30N 51°07' E 001°20'0 0.0
2018-Nov-04 06:04N 51°07' E 001°20'0 0.0
2018-Nov-04 06:01N 51°07' E 001°20'0 0.0
2018-Nov-04 05:30N 51°07' E 001°20'0 0.0
2018-Nov-04 05:03N 51°07' E 001°20'0 0.0
2018-Nov-04 05:00N 51°07' E 001°20'611.7
2018-Nov-04 04:30N 51°06' E 001°29'919.6
2018-Nov-04 04:03N 51°00' E 001°40'120.2
2018-Nov-04 04:00N 50°60' E 001°41'611.9
2018-Nov-04 03:28N 50°58' E 001°51'0 0.0
2018-Nov-04 03:03N 50°58' E 001°51'0 0.0
2018-Nov-04 03:00N 50°58' E 001°51'0 0.0
2018-Nov-04 02:29N 50°58' E 001°51'1 3.2
2018-Nov-04 02:03N 50°58' E 001°49'117.0
2018-Nov-04 02:00N 50°58' E 001°47'917.5
2018-Nov-04 01:30N 51°00' E 001°34'818.4
2018-Nov-04 01:03N 51°06' E 001°24'118.6
2018-Nov-04 01:00N 51°06' E 001°23'2 4.5
2018-Nov-04 00:31N 51°07' E 001°20'0 0.0
2018-Nov-04 00:03N 51°07' E 001°20'0 0.3
2018-Nov-04 00:00N 51°07' E 001°20'613.0
2018-Nov-03 23:30N 51°06' E 001°30'919.3
2018-Nov-03 23:03N 51°00' E 001°41'118.9
2018-Nov-03 23:01N 50°60' E 001°42'611.5
2018-Nov-03 22:29N 50°58' E 001°51'15 7.4
2018-Nov-03 20:31N 51°04' E 001°30'714.9
2018-Nov-03 20:03N 51°07' E 001°20'0 0.0
2018-Nov-03 20:00N 51°07' E 001°20'0 0.0
2018-Nov-03 19:29N 51°07' E 001°20'1 2.2
2018-Nov-03 19:04N 51°07' E 001°22'116.9
2018-Nov-03 19:01N 51°07' E 001°23'918.0
2018-Nov-03 18:31N 51°03' E 001°35'818.3
2018-Nov-03 18:03N 50°58' E 001°46'117.6
2018-Nov-03 18:01N 50°58' E 001°47'2 4.3
2018-Nov-03 17:29N 50°58' E 001°51'0 0.0
2018-Nov-03 17:02N 50°58' E 001°51'0 0.0
2018-Nov-03 16:56N 50°58' E 001°51'613.4
2018-Nov-03 16:31N 50°58' E 001°42'818.5
2018-Nov-03 16:03N 51°03' E 001°31'118.7
2018-Nov-03 16:01N 51°03' E 001°30'714.0
2018-Nov-03 15:29N 51°07' E 001°20'0 0.0
2018-Nov-03 15:03N 51°07' E 001°20'0 0.0
2018-Nov-03 15:00N 51°07' E 001°20'2 4.3
2018-Nov-03 14:30N 51°07' E 001°23'818.9
2018-Nov-03 14:03N 51°02' E 001°35'119.4
2018-Nov-03 14:00N 51°01' E 001°36'918.6
2018-Nov-03 13:30N 50°58' E 001°49'1 2.0
2018-Nov-03 13:01N 50°58' E 001°51'0 0.0
2018-Nov-03 13:01N 50°58' E 001°51'0 0.2
2018-Nov-03 12:29N 50°58' E 001°51'715.3
2018-Nov-03 12:03N 50°58' E 001°40'119.0
2018-Nov-03 12:00N 50°59' E 001°39'918.5
2018-Nov-03 11:30N 51°04' E 001°27'612.0
2018-Nov-03 11:03N 51°07' E 001°20'0 0.0
2018-Nov-03 11:00N 51°07' E 001°20'0 0.0
2018-Nov-03 10:30N 51°07' E 001°20'0 1.1
2018-Nov-03 10:04N 51°07' E 001°21'114.3
2018-Nov-03 10:00N 51°07' E 001°22'918.3
2018-Nov-03 09:30N 51°03' E 001°35'818.2
2018-Nov-03 09:04N 50°58' E 001°45'116.5
2018-Nov-03 09:00N 50°58' E 001°47'3 5.4
2018-Nov-03 08:30N 50°58' E 001°51'0 0.0
2018-Nov-03 08:02N 50°58' E 001°51'0 0.0
2018-Nov-03 07:57N 50°58' E 001°51'4 8.4
2018-Nov-03 07:30N 50°58' E 001°45'919.2
2018-Nov-03 07:03N 51°02' E 001°33'118.6
2018-Nov-03 07:00N 51°02' E 001°32'917.0
2018-Nov-03 06:29N 51°07' E 001°20'0 0.0
2018-Nov-03 06:03N 51°07' E 001°20'0 0.0
2018-Nov-03 06:00N 51°07' E 001°20'0 0.0
2018-Nov-03 05:30N 51°07' E 001°20'0 0.4
2018-Nov-03 05:03N 51°07' E 001°20'0 9.2
2018-Nov-03 05:00N 51°07' E 001°21'917.7
2018-Nov-03 04:31N 51°04' E 001°34'919.2
2018-Nov-03 04:04N 50°58' E 001°44'118.0
2018-Nov-03 04:01N 50°58' E 001°46'3 6.8
2018-Nov-03 03:30N 50°58' E 001°51'0 0.0
2018-Nov-03 03:03N 50°58' E 001°51'0 0.0
2018-Nov-03 03:00N 50°58' E 001°51'0 0.0
2018-Nov-03 02:29N 50°58' E 001°51'2 5.6
2018-Nov-03 02:03N 50°58' E 001°47'116.8
2018-Nov-03 02:01N 50°58' E 001°46'816.6
2018-Nov-03 01:30N 50°59' E 001°33'919.2
2018-Nov-03 01:03N 51°06' E 001°24'119.0
2018-Nov-03 01:00N 51°06' E 001°23'2 3.8
2018-Nov-03 00:29N 51°07' E 001°20'0 0.0
2018-Nov-03 00:03N 51°07' E 001°20'0 0.0
2018-Nov-03 00:00N 51°07' E 001°20'612.0
2018-Nov-02 23:31N 51°05' E 001°29'918.9
2018-Nov-02 23:03N 51°00' E 001°40'118.9
2018-Nov-02 23:01N 50°60' E 001°41'612.7
2018-Nov-02 22:30N 50°58' E 001°51'0 0.0
2018-Nov-02 22:03N 50°58' E 001°51'0 0.0
2018-Nov-02 22:00N 50°58' E 001°51'0 0.0
2018-Nov-02 21:29N 50°58' E 001°51'510.5
2018-Nov-02 21:03N 50°58' E 001°44'119.2
2018-Nov-02 21:00N 50°58' E 001°42'1019.1
2018-Nov-02 20:30N 51°03' E 001°29'715.9
2018-Nov-02 20:03N 51°07' E 001°20'0 0.0
2018-Nov-02 20:00N 51°07' E 001°20'0 0.0
2018-Nov-02 19:30N 51°07' E 001°20'1 2.0
2018-Nov-02 19:04N 51°07' E 001°21'117.2
2018-Nov-02 19:01N 51°07' E 001°23'918.1
2018-Nov-02 18:30N 51°03' E 001°36'818.1
2018-Nov-02 18:03N 50°58' E 001°46'116.7
2018-Nov-02 18:00N 50°58' E 001°47'2 2.3
2018-Nov-02 16:58N 50°58' E 001°51'613.3
2018-Nov-02 16:29N 50°59' E 001°41'819.0
2018-Nov-02 16:04N 51°03' E 001°30'118.9
2018-Nov-02 16:01N 51°03' E 001°28'713.3
2018-Nov-02 15:31N 51°07' E 001°20'0 0.0
2018-Nov-02 15:04N 51°07' E 001°20'0 0.0
2018-Nov-02 14:58N 51°07' E 001°20'2 4.7
2018-Nov-02 14:31N 51°07' E 001°23'918.2
2018-Nov-02 14:01N 51°04' E 001°37'917.9
2018-Nov-02 13:31N 50°58' E 001°48'2 3.2
2018-Nov-02 12:55N 50°58' E 001°51'0 0.0
2018-Nov-02 12:30N 50°58' E 001°51'613.4
2018-Nov-02 12:03N 50°58' E 001°41'118.4
2018-Nov-02 12:00N 50°59' E 001°40'918.1
2018-Nov-02 11:30N 51°03' E 001°28'613.2
2018-Nov-02 11:02N 51°07' E 001°20'0 0.3
2018-Nov-02 11:00N 51°07' E 001°20'0 0.0
2018-Nov-02 10:30N 51°07' E 001°20'1 1.3
2018-Nov-02 10:03N 51°07' E 001°21'116.7
2018-Nov-02 10:01N 51°07' E 001°22'918.0
2018-Nov-02 09:31N 51°04' E 001°35'818.6
2018-Nov-02 09:04N 50°58' E 001°45'117.7
2018-Nov-02 09:01N 50°58' E 001°47'3 5.5
2018-Nov-02 08:30N 50°58' E 001°51'0 0.0
2018-Nov-02 08:03N 50°58' E 001°51'0 0.0
2018-Nov-02 07:59N 50°58' E 001°51'5 9.6
2018-Nov-02 07:30N 50°58' E 001°44'919.6
2018-Nov-02 07:03N 51°02' E 001°31'119.4
2018-Nov-02 07:01N 51°03' E 001°30'815.5
2018-Nov-02 06:30N 51°07' E 001°20'0 0.0
2018-Nov-02 06:03N 51°07' E 001°20'0 0.0
2018-Nov-02 06:00N 51°07' E 001°20'0 0.0
2018-Nov-02 05:30N 51°07' E 001°20'2 4.4
2018-Nov-02 05:03N 51°07' E 001°23'117.9
2018-Nov-02 05:00N 51°07' E 001°24'917.6
2018-Nov-02 04:31N 51°02' E 001°36'817.4
2018-Nov-02 04:03N 50°58' E 001°47'117.8
2018-Nov-02 04:00N 50°58' E 001°49'2 3.2
2018-Nov-02 03:30N 50°58' E 001°51'0 0.0
2018-Nov-02 03:03N 50°58' E 001°51'0 0.0
2018-Nov-02 03:00N 50°58' E 001°51'0 0.0
2018-Nov-02 02:30N 50°58' E 001°51'4 8.8
2018-Nov-02 02:03N 50°58' E 001°45'117.4
2018-Nov-02 02:00N 50°58' E 001°43'917.4
2018-Nov-02 01:30N 51°02' E 001°31'818.3
2018-Nov-02 01:04N 51°07' E 001°20'110.8
2018-Nov-02 01:01N 51°07' E 001°20'1 5.6
2018-Nov-02 00:55N 51°07' E 001°20'0 0.0
2018-Nov-02 00:36N 51°07' E 001°20'0 0.0
2018-Nov-02 00:30N 51°07' E 001°20'0 0.0
2018-Nov-02 00:03N 51°07' E 001°20'0 1.2
2018-Nov-01 23:58N 51°07' E 001°20'716.1
2018-Nov-01 23:30N 51°05' E 001°31'818.8
2018-Nov-01 23:03N 50°60' E 001°42'119.0
2018-Nov-01 23:00N 50°59' E 001°43'510.1
2018-Nov-01 22:31N 50°58' E 001°51'0 0.0
2018-Nov-01 22:03N 50°58' E 001°51'0 0.0
2018-Nov-01 21:58N 50°58' E 001°51'0 0.1
2018-Nov-01 21:27N 50°58' E 001°51'614.8
2018-Nov-01 21:04N 50°58' E 001°42'118.9
2018-Nov-01 21:01N 50°58' E 001°40'919.0
2018-Nov-01 20:31N 51°04' E 001°28'613.6
2018-Nov-01 20:03N 51°07' E 001°20'0 0.0
2018-Nov-01 20:00N 51°07' E 001°20'0 0.0
2018-Nov-01 19:30N 51°07' E 001°20'2 4.4
2018-Nov-01 19:04N 51°07' E 001°23'117.2
2018-Nov-01 19:01N 51°07' E 001°24'917.5
2018-Nov-01 18:31N 51°02' E 001°37'817.5
2018-Nov-01 18:03N 50°58' E 001°47'117.1
2018-Nov-01 18:00N 50°58' E 001°48'2 2.2
2018-Nov-01 17:14N 50°58' E 001°51'0 0.2
2018-Nov-01 16:57N 50°58' E 001°51'716.3
2018-Nov-01 16:30N 50°59' E 001°39'818.9
2018-Nov-01 16:04N 51°04' E 001°28'118.5
2018-Nov-01 16:01N 51°04' E 001°27'510.7
2018-Nov-01 15:30N 51°07' E 001°20'0 0.0
2018-Nov-01 15:03N 51°07' E 001°20'0 0.1
2018-Nov-01 15:00N 51°07' E 001°20'3 5.8
2018-Nov-01 14:31N 51°06' E 001°24'1019.2
2018-Nov-01 14:01N 51°02' E 001°37'917.5
2018-Nov-01 13:30N 50°58' E 001°50'0 1.1
2018-Nov-01 13:04N 50°58' E 001°51'0 0.0
2018-Nov-01 13:00N 50°58' E 001°51'0 0.6
2018-Nov-01 12:30N 50°58' E 001°51'716.2
2018-Nov-01 12:03N 50°59' E 001°39'118.5
2018-Nov-01 12:00N 50°59' E 001°38'918.4
2018-Nov-01 11:30N 51°05' E 001°26'510.0
2018-Nov-01 11:03N 51°07' E 001°20'0 0.0
2018-Nov-01 11:00N 51°07' E 001°20'0 0.0
2018-Nov-01 10:30N 51°07' E 001°20'0 0.2
2018-Nov-01 10:03N 51°07' E 001°20'0 2.7
2018-Nov-01 10:00N 51°07' E 001°20'918.0
2018-Nov-01 09:30N 51°03' E 001°33'919.4
2018-Nov-01 09:03N 50°58' E 001°45'118.1
2018-Nov-01 09:00N 50°58' E 001°46'3 6.4
2018-Nov-01 08:30N 50°58' E 001°51'0 0.0
2018-Nov-01 08:03N 50°58' E 001°51'0 0.0
2018-Nov-01 08:00N 50°58' E 001°51'612.9
2018-Nov-01 07:30N 50°59' E 001°41'818.6
2018-Nov-01 07:03N 51°03' E 001°30'118.6
2018-Nov-01 07:00N 51°03' E 001°28'713.1
2018-Nov-01 06:30N 51°07' E 001°20'0 0.0
2018-Nov-01 06:03N 51°07' E 001°20'0 0.0
2018-Nov-01 06:00N 51°07' E 001°20'0 0.0
2018-Nov-01 05:29N 51°07' E 001°20'1 1.8
2018-Nov-01 05:03N 51°07' E 001°21'116.7
2018-Nov-01 05:00N 51°07' E 001°23'918.1
2018-Nov-01 04:30N 51°03' E 001°36'818.2
2018-Nov-01 04:03N 50°58' E 001°46'116.6
2018-Nov-01 04:00N 50°58' E 001°47'3 5.2
2018-Nov-01 03:30N 50°58' E 001°51'0 0.0
2018-Nov-01 03:03N 50°58' E 001°51'0 0.0
2018-Nov-01 03:00N 50°58' E 001°51'  

Dump ship's entire track history